Time;durP1;ratioP1;P1;durP2;ratioP2;P2;SDS_P1;SDS_P2;PMS_P1;PMS_P2;Temp;Humidity;BMP_temperature;BMP_pressure;BME280_temperature;BME280_humidity;BME280_pressure;Samples;Min_cycle;Max_cycle;Signal;HPM_P1;HPM_P2
2023/10/26 00:01:39;;;;;;;8.35;4.35;;;12.00;99.90;;;10.32;100.00;98548.66;10314440;28;98099;-84
2023/10/26 00:06:43;;;;;;;10.20;5.23;;;11.90;99.90;;;10.30;100.00;98526.78;10293324;28;97227;-84
2023/10/26 00:11:49;;;;;;;9.70;4.10;;;11.90;99.90;;;10.29;100.00;98521.69;10307391;28;97477;-83
2023/10/26 00:16:53;;;;;;;7.57;4.03;;;11.90;99.90;;;10.27;100.00;98511.28;10333695;28;97808;-84
2023/10/26 00:21:57;;;;;;;6.80;3.70;;;11.90;99.90;;;10.30;100.00;98515.34;10299346;28;96595;-83
2023/10/26 00:27:02;;;;;;;8.03;3.87;;;11.90;99.90;;;10.26;100.00;98501.69;10317499;28;96644;-84
2023/10/26 00:32:07;;;;;;;7.43;3.83;;;11.90;99.90;;;10.26;100.00;98501.69;10326734;28;96706;-84
2023/10/26 00:37:11;;;;;;;11.40;4.27;;;11.90;99.90;;;10.24;100.00;98509.03;10319964;28;96672;-84
2023/10/26 00:42:15;;;;;;;8.87;3.90;;;11.90;99.90;;;10.21;100.00;98500.63;10318269;28;96679;-84
2023/10/26 00:47:19;;;;;;;9.13;4.00;;;11.80;99.90;;;10.26;100.00;98500.88;10303858;28;96616;-84
2023/10/26 00:52:23;;;;;;;7.47;3.50;;;11.80;99.90;;;10.27;100.00;98486.56;10323534;28;98493;-84
2023/10/26 00:57:27;;;;;;;14.50;4.00;;;11.90;99.90;;;10.25;100.00;98480.63;10304471;28;96732;-84
2023/10/26 01:02:32;;;;;;;7.40;4.00;;;11.80;99.90;;;10.24;100.00;98481.66;10332665;28;96893;-84
2023/10/26 01:07:36;;;;;;;9.40;3.50;;;11.80;99.90;;;10.21;100.00;98471.44;10337465;28;97550;-84
2023/10/26 01:12:40;;;;;;;7.00;3.60;;;11.80;99.90;;;10.16;100.00;98477.38;10307957;28;97057;-84
2023/10/26 01:17:44;;;;;;;7.53;3.87;;;11.80;99.90;;;10.08;100.00;98467.78;10342085;28;96710;-84
2023/10/26 01:22:48;;;;;;;6.43;3.83;;;11.70;99.90;;;10.07;100.00;98467.97;10338793;28;96588;-84
2023/10/26 01:27:51;;;;;;;5.80;3.27;;;11.60;99.90;;;9.98;100.00;98455.97;10350300;28;96614;-84
2023/10/26 01:32:55;;;;;;;6.83;3.33;;;11.60;99.90;;;9.94;100.00;98468.81;10323223;28;97315;-84
2023/10/26 01:37:59;;;;;;;5.50;3.60;;;11.50;99.90;;;9.90;100.00;98471.06;10345805;28;96744;-84
2023/10/26 01:43:02;;;;;;;6.77;3.40;;;11.50;99.90;;;9.87;100.00;98473.31;10292703;28;96876;-84
2023/10/26 01:48:06;;;;;;;7.83;4.00;;;11.40;99.90;;;9.83;100.00;98464.94;10328123;28;96792;-84
2023/10/26 01:53:10;;;;;;;6.70;3.57;;;11.40;99.90;;;9.74;100.00;98460.88;10313913;28;96689;-84
2023/10/26 01:58:13;;;;;;;9.23;4.27;;;11.30;99.90;;;9.73;100.00;98458.44;10327657;28;96586;-84
2023/10/26 02:03:18;;;;;;;5.73;3.67;;;11.30;99.90;;;9.70;100.00;98458.81;10322665;28;97019;-84
2023/10/26 02:08:22;;;;;;;6.40;3.90;;;11.30;99.90;;;9.68;100.00;98459.03;10320808;28;96567;-84
2023/10/26 02:13:25;;;;;;;5.87;3.60;;;11.30;99.90;;;9.66;100.00;98455.78;10332167;28;97713;-84
2023/10/26 02:18:29;;;;;;;7.13;3.93;;;11.30;99.90;;;9.63;100.00;98458.81;10304295;28;96547;-84
2023/10/26 02:23:33;;;;;;;5.87;3.57;;;11.20;99.90;;;9.62;100.00;98454.56;10339905;28;97013;-84
2023/10/26 02:28:37;;;;;;;6.10;3.40;;;11.20;99.90;;;9.52;100.00;98443.53;10333159;28;97731;-84
2023/10/26 02:33:40;;;;;;;15.33;3.10;;;11.20;99.90;;;9.50;100.00;98443.75;10333981;28;97240;-84
2023/10/26 02:38:44;;;;;;;7.33;3.37;;;11.10;99.90;;;9.47;100.00;98449.44;10313099;28;96531;-84
2023/10/26 02:43:48;;;;;;;6.93;3.57;;;11.10;99.90;;;9.44;100.00;98457.00;10313417;28;98618;-84
2023/10/26 02:48:52;;;;;;;18.63;4.00;;;11.00;99.90;;;9.43;100.00;98452.72;10341532;28;97243;-84
2023/10/26 02:53:55;;;;;;;8.57;4.17;;;11.00;99.90;;;9.45;100.00;98456.78;10312525;28;96974;-84
2023/10/26 02:58:59;;;;;;;6.93;3.47;;;11.10;99.90;;;9.49;100.00;98450.06;10313293;28;97983;-84
2023/10/26 03:04:03;;;;;;;7.17;3.43;;;11.10;99.90;;;9.51;100.00;98449.84;10321050;28;96795;-84
2023/10/26 03:09:13;;;;;;;6.13;3.63;;;11.10;99.90;;;9.54;100.00;98447.63;10344401;28;96567;-84
2023/10/26 03:14:18;;;;;;;26.33;13.00;;;11.10;99.90;;;9.55;100.00;98443.13;10304521;28;97045;-84
2023/10/26 03:19:22;;;;;;;29.57;14.43;;;11.20;99.90;;;9.55;100.00;98437.81;10285326;28;98539;-84
2023/10/26 03:24:25;;;;;;;30.97;15.00;;;11.20;99.90;;;9.52;100.00;98436.38;10332551;28;98163;-84
2023/10/26 03:29:29;;;;;;;11.17;6.37;;;11.20;99.90;;;9.51;100.00;98436.59;10298268;28;96567;-84
2023/10/26 03:34:35;;;;;;;5.90;3.80;;;11.10;99.90;;;9.38;100.00;98434.75;10341780;28;96686;-84
2023/10/26 03:39:39;;;;;;;4.13;2.77;;;11.00;99.90;;;9.29;100.00;98452.69;10327303;28;96475;-84
2023/10/26 03:44:42;;;;;;;4.87;2.30;;;10.90;99.90;;;9.33;100.00;98453.09;10332811;28;97409;-84
2023/10/26 03:49:50;;;;;;;3.67;2.13;;;10.90;99.90;;;9.33;100.00;98453.09;10324277;28;97364;-84
2023/10/26 03:54:53;;;;;;;5.03;2.20;;;11.00;99.90;;;9.34;100.00;98450.25;10320717;28;96761;-84
2023/10/26 03:59:57;;;;;;;4.53;2.30;;;10.90;99.90;;;9.30;100.00;98453.53;10312948;28;96798;-84
2023/10/26 04:05:01;;;;;;;4.70;2.10;;;10.90;99.90;;;9.23;100.00;98448.19;10302724;28;98032;-84
2023/10/26 04:10:07;;;;;;;3.43;1.90;;;10.90;99.90;;;9.15;100.00;98445.72;10327477;28;97093;-84
2023/10/26 04:15:11;;;;;;;3.83;1.80;;;10.80;99.90;;;9.11;100.00;98452.44;10329100;28;98657;-83
2023/10/26 04:20:16;;;;;;;4.00;1.83;;;10.80;99.90;;;9.05;100.00;98450.59;10293566;28;98434;-84
2023/10/26 04:25:21;;;;;;;2.07;1.47;;;10.70;99.90;;;8.99;100.00;98452.22;10306222;28;96763;-84
2023/10/26 04:30:25;;;;;;;4.13;1.53;;;10.60;99.90;;;9.01;100.00;98446.75;10324012;28;98352;-84
2023/10/26 04:35:28;;;;;;;5.20;1.50;;;10.60;99.90;;;9.04;100.00;98448.97;10329793;28;98660;-84
2023/10/26 04:40:32;;;;;;;3.50;1.87;;;10.70;99.90;;;9.10;100.00;98440.22;10338343;28;96530;-84
2023/10/26 04:45:36;;;;;;;4.37;2.40;;;10.70;99.90;;;9.22;100.00;98443.91;10297160;28;98911;-84
2023/10/26 04:50:40;;;;;;;5.93;1.77;;;10.80;99.90;;;9.37;100.00;98441.09;10330596;28;96662;-83
2023/10/26 04:55:44;;;;;;;3.17;2.10;;;11.00;99.90;;;9.50;100.00;98442.91;10329120;28;96608;-82
2023/10/26 05:00:48;;;;;;;5.27;2.07;;;11.10;99.90;;;9.60;100.00;98449.47;10285503;28;98553;-83
2023/10/26 05:05:52;;;;;;;5.50;1.90;;;11.20;99.90;;;9.66;100.00;98447.81;10317378;28;96538;-83
2023/10/26 05:10:56;;;;;;;4.17;1.67;;;11.30;99.90;;;9.72;100.00;98438.25;10307812;28;98870;-83
2023/10/26 05:16:00;;;;;;;8.23;3.10;;;11.40;99.90;;;9.78;100.00;98435.56;10297253;28;99129;-83
2023/10/26 05:21:03;;;;;;;11.97;5.40;;;11.40;99.90;;;9.88;100.00;98429.84;10306929;28;98661;-84
2023/10/26 05:26:07;;;;;;;8.73;3.80;;;11.50;99.90;;;9.95;100.00;98432.47;10334624;28;96680;-84
2023/10/26 05:31:11;;;;;;;8.40;3.43;;;11.60;99.90;;;10.03;100.00;98438.41;10344375;28;96409;-83
2023/10/26 05:36:15;;;;;;;14.50;5.00;;;11.70;99.90;;;10.14;100.00;98455.53;10308161;28;96666;-83
2023/10/26 05:41:19;;;;;;;9.50;5.20;;;11.80;99.90;;;10.22;100.00;98451.81;10344573;28;97441;-84
2023/10/26 05:46:23;;;;;;;11.00;4.77;;;11.80;99.90;;;10.33;100.00;98464.50;10308217;28;97544;-84
2023/10/26 05:51:27;;;;;;;8.57;5.00;;;12.00;99.90;;;10.42;100.00;98474.66;10315666;28;97072;-83
2023/10/26 05:56:31;;;;;;;9.27;4.40;;;12.10;99.90;;;10.53;100.00;98486.50;10312330;28;96529;-83
2023/10/26 06:01:34;;;;;;;9.93;5.30;;;12.10;99.90;;;10.61;100.00;98488.09;10306986;28;96700;-84
2023/10/26 06:06:38;;;;;;;8.90;4.67;;;12.20;99.90;;;10.71;100.00;98499.09;10351665;28;96582;-84
2023/10/26 06:11:42;;;;;;;8.50;3.50;;;12.30;99.90;;;10.79;100.00;98490.06;10340456;28;96945;-84
2023/10/26 06:16:47;;;;;;;14.30;4.40;;;12.40;99.90;;;10.89;100.00;98477.97;10326923;28;96673;-84
2023/10/26 06:21:50;;;;;;;9.73;3.80;;;12.50;99.90;;;10.97;100.00;98488.38;10339339;28;98686;-84
2023/10/26 06:26:54;;;;;;;5.07;2.80;;;12.50;99.90;;;11.08;100.00;98499.34;10333327;28;96614;-84
2023/10/26 06:31:58;;;;;;;4.50;2.43;;;12.60;99.90;;;11.23;100.00;98492.72;10314888;28;96670;-84
2023/10/26 06:37:19;;;;;;;5.23;3.20;;;12.70;99.90;;;11.38;100.00;98504.91;10321926;28;97090;-84
2023/10/26 06:42:22;;;;;;;4.43;2.77;;;12.90;99.90;;;11.50;100.00;98498.69;10330326;28;96829;-84
2023/10/26 06:47:26;;;;;;;5.70;2.67;;;13.00;99.90;;;11.62;100.00;98500.66;10295963;28;96782;-84
2023/10/26 06:52:30;;;;;;;6.60;2.70;;;13.10;99.90;;;11.73;100.00;98502.63;10327061;28;97329;-83
2023/10/26 06:57:35;;;;;;;6.40;2.47;;;13.20;99.90;;;11.80;100.00;98506.84;10315561;28;96761;-83
2023/10/26 07:02:39;;;;;;;4.33;2.73;;;13.30;99.90;;;11.85;100.00;98516.88;10333217;28;96780;-83
2023/10/26 07:07:43;;;;;;;6.10;2.93;;;13.40;99.90;;;11.89;100.00;98517.28;10307249;28;96788;-84
2023/10/26 07:12:47;;;;;;;5.83;2.70;;;13.40;99.90;;;11.94;100.00;98530.75;10312422;28;96574;-84
2023/10/26 07:17:51;;;;;;;7.73;3.40;;;13.40;99.90;;;11.97;100.00;98530.31;10291989;28;96641;-83
2023/10/26 07:22:55;;;;;;;6.83;3.70;;;13.50;99.90;;;12.01;100.00;98532.31;10333364;28;97150;-83
2023/10/26 07:27:59;;;;;;;6.20;3.73;;;13.50;99.90;;;12.12;100.00;98533.47;10373738;28;97888;-83
2023/10/26 07:33:02;;;;;;;5.37;3.80;;;13.60;99.90;;;12.17;100.00;98536.25;10330385;28;97552;-83
2023/10/26 07:38:08;;;;;;;5.77;3.80;;;13.70;99.90;;;12.25;100.00;98536.00;10290945;28;96467;-84
2023/10/26 07:43:32;;;;;;;5.27;3.20;;;13.80;99.90;;;12.38;100.00;98532.41;10318599;28;98403;-84
2023/10/26 07:48:36;;;;;;;7.33;3.47;;;13.90;99.90;;;12.50;100.00;98529.81;10314350;28;96951;-83
2023/10/26 07:53:40;;;;;;;5.43;3.53;;;14.00;99.90;;;12.61;100.00;98526.44;10330131;28;99193;-83
2023/10/26 07:58:44;;;;;;;6.22;3.17;;;14.10;99.90;;;12.70;100.00;98529.59;10321724;28;96734;-84
2023/10/26 08:03:49;;;;;;;6.33;3.57;;;14.20;99.90;;;12.72;100.00;98539.03;10348893;28;97532;-83
2023/10/26 08:08:53;;;;;;;5.83;3.60;;;14.30;99.90;;;12.77;100.00;98539.16;10344545;28;96743;-83
2023/10/26 08:13:57;;;;;;;4.45;2.75;;;14.30;99.90;;;12.74;100.00;98550.25;10344515;28;97884;-83
2023/10/26 08:19:01;;;;;;;7.65;3.95;;;14.30;99.90;;;12.70;100.00;98557.06;10307000;28;98858;-83
2023/10/26 08:24:06;;;;;;;5.90;3.15;;;14.20;99.90;;;12.65;100.00;98548.91;10318188;28;97013;-83
2023/10/26 08:29:10;;;;;;;5.20;2.97;;;14.20;99.90;;;12.70;100.00;98545.59;10290600;28;96538;-83
2023/10/26 08:34:27;;;;;;;5.00;2.63;;;14.20;99.90;;;12.77;100.00;98557.00;10276128;28;96510;-83
2023/10/26 08:39:31;;;;;;;4.40;2.77;;;14.30;99.90;;;12.87;100.00;98557.28;10290049;28;96562;-83
2023/10/26 08:44:36;;;;;;;4.37;2.30;;;14.40;99.90;;;13.00;100.00;98546.47;10302661;28;97375;-83
2023/10/26 08:49:43;;;;;;;4.47;2.75;;;14.50;99.90;;;13.20;100.00;98550.78;10274774;28;96617;-83
2023/10/26 08:54:58;;;;;;;10.55;3.40;;;14.70;99.90;;;13.37;100.00;98547.28;10289179;28;96599;-83
2023/10/26 09:00:05;;;;;;;13.02;3.25;;;14.90;99.90;;;13.56;100.00;98549.91;10290350;28;96714;-84
2023/10/26 09:05:10;;;;;;;3.67;1.98;;;15.10;99.90;;;13.72;100.00;98549.22;10298314;28;96633;-83
2023/10/26 09:10:33;;;;;;;26.45;2.70;;;15.30;99.90;;;13.98;100.00;98561.38;10344545;28;97885;-83
2023/10/26 09:15:51;;;;;;;5.05;2.05;;;15.60;99.90;;;14.22;100.00;98556.06;10319784;28;96629;-83
2023/10/26 09:21:08;;;;;;;3.22;1.75;;;15.80;99.90;;;14.34;100.00;98567.59;10287523;28;96730;-83
2023/10/26 09:26:12;;;;;;;2.92;1.90;;;16.00;99.90;;;14.42;100.00;98562.69;10279715;28;96512;-83
2023/10/26 09:31:17;;;;;;;8.05;2.95;;;16.10;99.90;;;14.49;100.00;98569.81;10304412;28;98160;-83
2023/10/26 09:36:21;;;;;;;10.40;3.00;;;16.10;99.90;;;14.53;100.00;98579.81;10295084;28;96552;-83
2023/10/26 09:41:25;;;;;;;20.25;3.17;;;16.20;99.90;;;14.63;100.00;98588.06;10339007;28;97959;-83
2023/10/26 09:46:29;;;;;;;6.65;3.40;;;16.30;99.90;;;14.65;100.00;98563.78;10324309;28;96780;-84
2023/10/26 09:51:33;;;;;;;6.45;3.72;;;16.30;99.90;;;14.67;100.00;98565.16;10320198;28;96613;-83
2023/10/26 09:56:43;;;;;;;8.05;3.00;;;16.30;99.90;;;14.73;100.00;98556.19;10313315;28;96799;-84
2023/10/26 10:01:47;;;;;;;5.57;2.77;;;16.40;99.90;;;14.80;100.00;98552.56;10327222;28;98368;-82
2023/10/26 10:06:58;;;;;;;4.20;2.30;;;16.40;99.90;;;14.88;100.00;98550.38;10341596;28;97532;-83
2023/10/26 10:12:14;;;;;;;4.28;2.38;;;16.50;99.90;;;15.05;100.00;98553.09;10351913;28;96554;-83
2023/10/26 10:17:19;;;;;;;3.90;1.77;;;16.70;99.90;;;15.46;100.00;98537.84;10379782;28;96907;-83
2023/10/26 10:22:38;;;;;;;4.97;2.03;;;17.00;99.90;;;15.96;100.00;98543.31;10338193;28;96602;-84
2023/10/26 10:27:48;;;;;;;6.82;1.20;;;17.50;99.90;;;16.31;100.00;98532.34;10330852;28;96678;-84
2023/10/26 10:32:53;;;;;;;1.17;0.70;;;17.80;99.90;;;16.55;100.00;98534.81;10367437;28;97498;-83
2023/10/26 10:38:15;;;;;;;1.08;0.70;;;18.10;99.90;;;16.68;90.68;98523.75;10349954;28;96546;-83
2023/10/26 10:43:45;;;;;;;1.67;0.63;;;18.20;99.90;;;16.67;85.13;98522.09;10332202;28;97443;-83
2023/10/26 10:49:04;;;;;;;1.00;0.60;;;18.20;99.90;;;16.71;84.47;98519.78;10316333;28;96631;-84
2023/10/26 10:54:13;;;;;;;0.70;0.40;;;18.20;99.90;;;16.76;81.67;98509.13;10333097;28;97206;-83
2023/10/26 10:59:37;;;;;;;0.80;0.52;;;18.30;99.90;;;16.77;76.97;98500.81;10300780;28;96875;-83
2023/10/26 11:04:55;;;;;;;1.02;0.57;;;18.30;99.90;;;16.83;76.46;98499.00;10338148;28;97013;-83
2023/10/26 11:10:14;;;;;;;0.38;0.38;;;18.40;99.90;;;17.03;73.49;98501.09;10288429;28;96619;-83
2023/10/26 11:15:18;;;;;;;0.57;0.40;;;18.90;99.90;;;17.51;75.79;98488.72;10320291;28;97108;-83
2023/10/26 11:20:47;;;;;;;0.98;0.57;;;19.40;99.90;;;17.97;72.61;98478.41;10340877;28;97059;-83
2023/10/26 11:25:51;;;;;;;1.27;0.50;;;19.80;99.10;;;18.21;68.48;98476.97;10320611;28;96578;-83
2023/10/26 11:30:59;;;;;;;0.70;0.40;;;20.00;98.30;;;18.21;63.64;98476.97;10330427;28;98906;-83
2023/10/26 11:36:13;;;;;;;0.80;0.52;;;19.90;97.20;;;18.14;65.28;98487.13;10305592;28;96486;-83
2023/10/26 11:41:25;;;;;;;1.75;0.50;;;19.70;96.10;;;17.95;61.99;98481.34;10324282;28;96681;-83
2023/10/26 11:46:33;;;;;;;0.93;0.40;;;19.50;95.80;;;17.78;61.71;98478.81;10325317;28;96665;-83
2023/10/26 11:51:37;;;;;;;0.50;0.30;;;19.30;93.90;;;17.69;61.97;98482.97;10291462;28;96549;-83
2023/10/26 11:56:53;;;;;;;1.45;0.25;;;19.20;93.80;;;17.61;60.20;98478.09;10308410;28;96502;-83
2023/10/26 12:01:56;;;;;;;1.05;0.40;;;19.10;93.10;;;17.53;61.95;98486.63;10337390;28;97092;-83
2023/10/26 12:07:01;;;;;;;0.88;0.30;;;19.00;93.00;;;17.51;61.47;98475.28;10294607;28;96582;-83
2023/10/26 12:12:05;;;;;;;0.70;0.30;;;19.00;92.70;;;17.51;60.54;98488.72;10309690;28;96535;-83
2023/10/26 12:17:12;;;;;;;0.88;0.30;;;19.00;92.80;;;17.62;61.38;98493.13;10292235;28;96878;-83
2023/10/26 12:22:16;;;;;;;2.13;0.40;;;19.10;92.60;;;17.82;59.85;98481.81;10289890;28;96489;-83
2023/10/26 12:27:20;;;;;;;0.80;0.40;;;19.30;92.20;;;17.96;56.72;98498.28;10291411;28;96577;-83
2023/10/26 12:32:26;;;;;;;0.75;0.30;;;19.40;91.00;;;17.87;57.56;98506.00;10322382;28;96541;-83
2023/10/26 12:37:30;;;;;;;0.95;0.38;;;19.40;90.70;;;17.81;56.77;98502.50;10303617;28;98555;-83
2023/10/26 12:42:35;;;;;;;0.50;0.30;;;19.30;90.40;;;17.77;58.38;98500.56;10330800;28;96412;-83
2023/10/26 12:47:39;;;;;;;0.80;0.35;;;19.30;90.70;;;17.67;60.29;98494.00;10293413;28;96611;-82
2023/10/26 12:52:42;;;;;;;0.70;0.30;;;19.20;90.90;;;17.62;60.17;98495.81;10289687;28;96612;-83
2023/10/26 12:57:47;;;;;;;0.90;0.43;;;19.20;91.30;;;17.54;60.31;98489.03;10294226;28;96503;-82
2023/10/26 13:02:50;;;;;;;0.82;0.30;;;19.10;91.40;;;17.44;61.77;98485.44;10336037;28;97694;-82
2023/10/26 13:07:54;;;;;;;1.95;1.10;;;19.00;91.30;;;17.34;63.58;98489.66;10343168;28;96478;-82
2023/10/26 13:12:58;;;;;;;0.47;0.40;;;18.90;91.80;;;17.19;61.82;98491.38;10370775;28;97363;-83
2023/10/26 13:18:05;;;;;;;1.13;0.40;;;18.90;91.80;;;17.12;62.35;98491.56;10303509;28;96518;-82
2023/10/26 13:23:09;;;;;;;4.18;1.88;;;18.70;91.80;;;17.08;65.44;98498.50;10352312;28;97035;-83
2023/10/26 13:28:15;;;;;;;2.13;1.40;;;18.70;92.30;;;17.09;66.92;98492.06;10317363;28;96556;-83
2023/10/26 13:33:19;;;;;;;3.13;1.30;;;18.70;92.70;;;17.07;69.47;98484.25;10320210;28;96741;-82
2023/10/26 13:38:23;;;;;;;2.17;1.25;;;18.70;93.20;;;17.02;70.17;98481.53;10304263;28;97418;-83
2023/10/26 13:43:27;;;;;;;2.92;1.90;;;18.70;93.40;;;16.95;71.18;98486.28;10333493;28;96831;-83
2023/10/26 13:48:31;;;;;;;7.25;3.60;;;18.70;93.60;;;16.91;71.96;98484.34;10311979;28;97578;-82
2023/10/26 13:53:35;;;;;;;1.80;1.13;;;18.60;93.80;;;16.91;72.43;98492.38;10312694;28;96591;-82
2023/10/26 13:58:38;;;;;;;1.08;0.70;;;18.60;93.90;;;16.86;71.94;98490.47;10334692;28;96906;-82
2023/10/26 14:03:42;;;;;;;1.85;1.05;;;18.50;93.80;;;16.81;71.88;98480.47;10336639;28;96505;-82
2023/10/26 14:08:47;;;;;;;2.28;0.70;;;18.50;94.00;;;16.78;74.01;98472.13;10305842;28;96698;-82
2023/10/26 14:13:50;;;;;;;3.53;1.70;;;18.40;94.30;;;16.74;74.44;98492.47;10369172;28;97379;-83
2023/10/26 14:18:54;;;;;;;6.95;1.52;;;18.30;94.50;;;16.59;75.19;98487.69;10338766;28;96666;-82
2023/10/26 14:23:58;;;;;;;5.63;1.17;;;18.20;94.80;;;16.48;76.32;98484.03;10333793;28;97508;-82
2023/10/26 14:29:02;;;;;;;2.45;1.27;;;18.10;95.00;;;16.32;77.00;98471.50;10302232;28;96600;-83
2023/10/26 14:34:05;;;;;;;7.78;2.20;;;18.00;95.20;;;16.20;78.04;98489.56;10348348;28;96696;-82
2023/10/26 14:39:09;;;;;;;7.63;2.58;;;17.90;95.50;;;16.05;79.72;98487.44;10333095;28;97839;-82
2023/10/26 14:44:13;;;;;;;7.90;3.67;;;17.70;95.70;;;15.92;80.77;98477.06;10312377;28;96568;-82
2023/10/26 14:49:17;;;;;;;17.10;5.72;;;17.60;96.00;;;15.78;81.41;98488.13;10340676;28;97322;-82
2023/10/26 14:54:21;;;;;;;10.48;3.17;;;17.40;96.20;;;15.63;82.22;98479.81;10292654;28;97380;-83
2023/10/26 14:59:25;;;;;;;52.70;14.52;;;17.30;96.50;;;15.48;83.15;98483.03;10328848;28;97471;-82
2023/10/26 15:04:29;;;;;;;129.93;45.67;;;17.20;96.70;;;15.37;83.75;98467.03;10318092;28;97921;-82
2023/10/26 15:09:33;;;;;;;21.83;10.60;;;17.00;97.00;;;15.27;84.59;98491.72;10319115;28;96549;-82
2023/10/26 15:14:57;;;;;;;23.42;11.70;;;16.90;97.20;;;15.14;85.37;98492.03;10321423;28;96638;-82
2023/10/26 15:20:01;;;;;;;18.08;7.30;;;16.70;97.40;;;15.00;85.95;98502.19;10326582;28;97664;-82
2023/10/26 15:25:05;;;;;;;139.23;63.25;;;16.60;97.60;;;14.86;87.16;98506.19;10330133;28;96598;-83
2023/10/26 15:30:10;;;;;;;182.70;88.38;;;16.50;98.00;;;14.71;88.01;98512.03;10348980;28;96686;-82
2023/10/26 15:35:14;;;;;;;18.67;9.43;;;16.30;98.20;;;14.56;88.76;98506.34;10344075;28;98442;-81
2023/10/26 15:40:18;;;;;;;29.77;13.52;;;16.20;98.50;;;14.42;89.35;98513.78;10316178;28;96616;-82
2023/10/26 15:45:21;;;;;;;37.33;18.02;;;16.00;98.70;;;14.30;90.14;98502.28;10309056;28;96676;-82
2023/10/26 15:50:25;;;;;;;14.98;6.55;;;15.90;98.90;;;14.19;90.67;98517.25;10321486;28;96607;-82
2023/10/26 15:55:29;;;;;;;7.03;3.35;;;15.80;99.30;;;14.07;91.42;98522.59;10325923;28;96611;-82
2023/10/26 16:00:33;;;;;;;6.75;2.65;;;15.70;99.30;;;13.91;91.89;98529.44;10323358;28;96652;-82
2023/10/26 16:05:38;;;;;;;8.70;3.85;;;15.50;99.60;;;13.77;92.94;98525.34;10331513;28;96806;-82
2023/10/26 16:10:41;;;;;;;9.43;3.63;;;15.30;99.80;;;13.62;93.82;98512.44;10302767;28;96512;-82
2023/10/26 16:15:45;;;;;;;11.80;4.32;;;15.20;99.90;;;13.52;94.76;98528.19;10324861;28;96453;-82
2023/10/26 16:20:50;;;;;;;7.38;3.70;;;15.10;99.90;;;13.39;95.63;98523.03;10321976;28;96627;-82
2023/10/26 16:25:54;;;;;;;8.00;2.80;;;14.90;99.90;;;13.28;96.42;98513.13;10342209;28;96540;-82
2023/10/26 16:30:59;;;;;;;5.93;2.90;;;14.90;99.90;;;13.20;97.48;98513.44;10341868;28;96492;-82
2023/10/26 16:36:04;;;;;;;7.00;2.37;;;14.70;99.90;;;13.12;98.46;98518.00;10314792;28;96454;-82
2023/10/26 16:41:07;;;;;;;4.85;2.35;;;14.70;99.90;;;13.12;99.72;98517.19;10358654;28;96588;-82
2023/10/26 16:46:14;;;;;;;5.35;2.45;;;14.70;99.90;;;13.10;100.00;98514.75;10333074;28;98372;-82
2023/10/26 16:51:18;;;;;;;8.65;2.65;;;14.60;99.90;;;13.15;100.00;98507.94;10326355;28;98197;-82
2023/10/26 16:56:23;;;;;;;4.65;2.25;;;14.70;99.90;;;13.21;100.00;98512.41;10320837;28;98448;-82
2023/10/26 17:01:28;;;;;;;5.47;3.08;;;14.70;99.90;;;13.26;100.00;98497.38;10318853;28;98008;-82
2023/10/26 17:06:32;;;;;;;7.18;3.40;;;14.80;99.90;;;13.31;100.00;98494.00;10321961;28;96751;-82
2023/10/26 17:11:36;;;;;;;14.07;6.32;;;14.80;99.90;;;13.34;100.00;98485.56;10293564;28;97830;-82
2023/10/26 17:16:42;;;;;;;12.40;5.53;;;14.90;99.90;;;13.35;100.00;98479.16;10322539;28;96745;-82
2023/10/26 17:21:46;;;;;;;10.30;4.63;;;14.90;99.90;;;13.38;100.00;98478.72;10321706;28;97142;-82
2023/10/26 17:26:52;;;;;;;8.30;4.53;;;14.90;99.90;;;13.41;100.00;98472.91;10311703;28;96674;-82
2023/10/26 17:31:56;;;;;;;8.07;4.13;;;15.00;99.90;;;13.41;100.00;98461.44;10352003;28;97884;-82
2023/10/26 17:37:03;;;;;;;10.40;4.45;;;15.00;99.90;;;13.42;100.00;98469.22;10313099;28;96755;-82
2023/10/26 17:42:06;;;;;;;12.75;5.03;;;15.00;99.90;;;13.39;100.00;98462.47;10325012;28;96535;-82
2023/10/26 17:47:10;;;;;;;10.95;5.03;;;15.00;99.90;;;13.37;100.00;98466.41;10292759;28;96470;-82
2023/10/26 17:52:17;;;;;;;16.05;6.40;;;15.00;99.90;;;13.36;100.00;98459.44;10295607;28;98919;-82
2023/10/26 17:57:22;;;;;;;8.32;3.90;;;15.00;99.90;;;13.33;100.00;98466.06;10298728;28;96544;-82
2023/10/26 18:02:26;;;;;;;10.90;3.55;;;14.90;99.90;;;13.30;100.00;98450.50;10305408;28;97769;-82
2023/10/26 18:07:33;;;;;;;5.85;3.13;;;14.90;99.90;;;13.29;100.00;98453.41;10323705;28;96701;-82
2023/10/26 18:12:40;;;;;;;5.40;3.90;;;14.90;99.90;;;13.28;100.00;98446.44;10295543;28;96682;-82
2023/10/26 18:17:43;;;;;;;9.27;3.75;;;14.90;99.90;;;13.25;100.00;98446.88;10327656;28;96656;-82
2023/10/26 18:22:47;;;;;;;6.63;3.00;;;14.90;99.90;;;13.23;100.00;98449.78;10318127;28;98650;-82
2023/10/26 18:27:51;;;;;;;9.73;3.67;;;14.80;99.90;;;13.16;100.00;98438.38;10324468;28;98132;-82
2023/10/26 18:33:01;;;;;;;7.47;4.07;;;14.80;99.90;;;13.15;100.00;98451.94;10316965;28;96761;-82
2023/10/26 18:38:05;;;;;;;6.72;2.88;;;14.80;99.90;;;13.14;100.00;98445.81;10310911;28;96637;-82
2023/10/26 18:43:09;;;;;;;6.95;3.05;;;14.80;99.90;;;13.12;100.00;98464.69;10311429;28;96597;-82
2023/10/26 18:48:12;;;;;;;6.30;2.40;;;14.70;99.90;;;13.11;100.00;98479.06;10307114;28;97388;-82
2023/10/26 18:53:19;;;;;;;10.35;4.68;;;14.70;99.90;;;13.08;100.00;98476.84;10309745;28;99690;-82
2023/10/26 18:58:25;;;;;;;7.13;3.17;;;14.70;99.90;;;13.04;100.00;98475.66;10319861;28;96686;-84
2023/10/26 19:03:29;;;;;;;5.87;2.97;;;14.60;99.90;;;12.95;100.00;98455.69;10318781;28;98430;-85
2023/10/26 19:08:32;;;;;;;7.60;3.03;;;14.50;99.90;;;12.81;100.00;98456.91;10312220;28;97665;-85
2023/10/26 19:13:36;;;;;;;6.67;2.63;;;14.40;99.90;;;12.69;100.00;98456.03;10317760;28;96646;-86
2023/10/26 19:18:46;;;;;;;6.37;2.90;;;14.30;99.90;;;12.59;100.00;98448.53;10323663;28;98352;-85
2023/10/26 19:23:49;;;;;;;4.90;2.30;;;14.20;99.90;;;12.48;100.00;98446.66;10350980;28;96879;-87
2023/10/26 19:28:53;;;;;;;4.10;1.90;;;14.10;99.90;;;12.36;100.00;98457.22;10324524;28;96672;-85
2023/10/26 19:33:57;;;;;;;3.43;1.60;;;14.00;99.90;;;12.29;100.00;98427.16;10333254;28;96800;-85
2023/10/26 19:39:02;;;;;;;2.60;1.30;;;13.90;99.90;;;12.24;100.00;98435.03;10330776;28;98202;-84
2023/10/26 19:44:09;;;;;;;5.23;2.53;;;13.80;99.90;;;12.18;100.00;98430.59;10304390;28;98822;-85
2023/10/26 19:49:13;;;;;;;5.93;3.03;;;13.80;99.90;;;12.10;100.00;98415.69;10339233;28;96901;-84
2023/10/26 19:54:18;;;;;;;7.07;3.20;;;13.70;99.90;;;12.03;100.00;98422.94;10300171;28;96907;-84
2023/10/26 19:59:22;;;;;;;9.90;4.10;;;13.60;99.90;;;11.91;100.00;98430.84;10339726;28;96808;-87
2023/10/26 20:04:26;;;;;;;7.47;3.33;;;13.50;99.90;;;11.83;100.00;98425.81;10312125;28;96644;-83
2023/10/26 20:09:30;;;;;;;6.13;2.70;;;13.40;99.90;;;11.74;100.00;98419.91;10282661;28;96985;-85
2023/10/26 20:14:35;;;;;;;6.50;3.13;;;13.30;99.90;;;11.65;100.00;98410.59;10329262;28;97396;-85
2023/10/26 20:19:39;;;;;;;4.33;2.83;;;13.20;99.90;;;11.54;100.00;98403.31;10334698;28;96846;-85
2023/10/26 20:24:47;;;;;;;7.80;2.60;;;13.10;99.90;;;11.48;100.00;98409.50;10333384;28;96991;-85
2023/10/26 20:29:51;;;;;;;3.17;2.27;;;13.00;99.90;;;11.40;100.00;98397.28;10301179;28;96952;-85
2023/10/26 20:34:55;;;;;;;18.83;3.40;;;13.00;99.90;;;11.37;100.00;98387.06;10290880;28;98107;-86
2023/10/26 20:40:03;;;;;;;5.40;2.43;;;13.00;99.90;;;11.34;100.00;98390.19;10280157;28;96652;-85
2023/10/26 20:45:09;;;;;;;26.67;2.73;;;12.90;99.90;;;11.32;100.00;98378.94;10289481;28;96581;-85
2023/10/26 20:50:13;;;;;;;6.97;2.10;;;12.90;99.90;;;11.28;100.00;98376.94;10298092;28;97116;-86
2023/10/26 20:55:18;;;;;;;5.10;2.43;;;12.90;99.90;;;11.23;100.00;98377.59;10305889;28;97045;-86
2023/10/26 21:00:22;;;;;;;5.10;2.60;;;12.80;99.90;;;11.20;100.00;98370.84;10296514;28;96658;-84